Time;durP1;ratioP1;P1;durP2;ratioP2;P2;SDS_P1;SDS_P2;PMS_P1;PMS_P2;Temp;Humidity;BMP_temperature;BMP_pressure;BME280_temperature;BME280_humidity;BME280_pressure;Samples;Min_cycle;Max_cycle;Signal;HPM_P1;HPM_P2
2022/08/01 00:00:53;;;;;;;7.20;4.50;;;23.90;65.70;;;;;;4993707;28;20513;-78
2022/08/01 00:03:21;;;;;;;6.10;4.10;;;23.90;65.70;;;;;;4994122;28;20466;-79
2022/08/01 00:05:49;;;;;;;6.17;4.03;;;23.90;65.70;;;;;;4994878;28;20549;-79
2022/08/01 00:08:17;;;;;;;8.17;4.30;;;23.90;65.70;;;;;;5005488;28;20498;-79
2022/08/01 00:10:45;;;;;;;7.50;3.90;;;23.90;65.70;;;;;;5002398;28;20872;-79
2022/08/01 00:13:12;;;;;;;5.97;4.00;;;23.90;65.70;;;;;;5005821;28;20827;-79
2022/08/01 00:15:40;;;;;;;7.10;4.13;;;23.90;65.70;;;;;;4996319;28;20485;-78
2022/08/01 00:18:22;;;;;;;7.10;4.87;;;23.90;65.80;;;;;;5025760;28;20454;-78
2022/08/01 00:20:50;;;;;;;6.30;4.10;;;23.80;65.80;;;;;;5030687;28;20472;-78
2022/08/01 00:23:18;;;;;;;7.37;3.60;;;23.80;65.80;;;;;;5020940;28;20462;-78
2022/08/01 00:25:46;;;;;;;16.53;5.33;;;23.80;65.90;;;;;;5014251;28;20469;-78
2022/08/01 00:28:16;;;;;;;8.17;4.73;;;23.80;66.00;;;;;;5025903;28;20974;-77
2022/08/01 00:30:44;;;;;;;6.47;4.63;;;23.70;66.00;;;;;;5024795;28;20458;-78
2022/08/01 00:33:12;;;;;;;7.67;3.57;;;23.70;66.00;;;;;;5025719;28;20943;-78
2022/08/01 00:35:41;;;;;;;7.17;4.10;;;23.60;66.10;;;;;;5026360;28;20471;-78
2022/08/01 00:38:10;;;;;;;5.60;3.50;;;23.60;66.20;;;;;;5023510;28;20462;-78
2022/08/01 00:40:38;;;;;;;8.13;3.60;;;23.60;66.30;;;;;;5023800;28;20509;-78
2022/08/01 00:43:06;;;;;;;6.53;4.20;;;23.60;66.30;;;;;;5024466;28;20460;-79
2022/08/01 00:45:34;;;;;;;6.57;3.90;;;23.60;66.40;;;;;;5021884;28;20470;-79
2022/08/01 00:48:02;;;;;;;6.10;3.63;;;23.70;66.40;;;;;;5014871;28;20478;-78
2022/08/01 00:50:30;;;;;;;5.67;3.33;;;23.70;66.40;;;;;;5027750;28;21249;-79
2022/08/01 00:53:00;;;;;;;6.60;3.73;;;23.70;66.40;;;;;;5017564;28;20472;-78
2022/08/01 00:55:29;;;;;;;6.10;3.73;;;23.60;66.40;;;;;;5017398;28;20452;-78
2022/08/01 00:57:57;;;;;;;8.23;3.33;;;23.60;66.50;;;;;;5031947;28;20468;-78
2022/08/01 01:00:33;;;;;;;7.37;3.20;;;23.60;66.50;;;;;;5029461;28;20479;-78
2022/08/01 01:03:21;;;;;;;6.33;4.37;;;23.60;66.50;;;;;;5026469;28;20460;-78
2022/08/01 01:06:12;;;;;;;6.67;4.10;;;23.60;66.50;;;;;;5020196;28;20544;-77
2022/08/01 01:08:47;;;;;;;7.20;4.27;;;23.60;66.60;;;;;;5025184;28;20490;-77
2022/08/01 01:11:22;;;;;;;5.50;3.77;;;23.60;66.60;;;;;;5026159;28;20452;-78
2022/08/01 01:13:54;;;;;;;6.37;3.90;;;23.50;66.60;;;;;;5012339;28;20463;-78
2022/08/01 01:16:23;;;;;;;6.70;3.83;;;23.50;66.70;;;;;;5009556;28;20484;-78
2022/08/01 01:18:55;;;;;;;7.30;4.07;;;23.50;66.70;;;;;;5025508;28;20473;-77
2022/08/01 01:21:39;;;;;;;6.37;4.10;;;23.40;66.80;;;;;;5024275;28;21117;-78
2022/08/01 01:24:18;;;;;;;6.80;3.40;;;23.40;66.90;;;;;;5008357;28;20469;-78
2022/08/01 01:26:53;;;;;;;7.57;3.80;;;23.40;66.90;;;;;;5025859;28;20474;-78
2022/08/01 01:29:26;;;;;;;7.10;4.10;;;23.30;67.00;;;;;;5023933;28;20508;-78
2022/08/01 01:32:02;;;;;;;6.77;3.50;;;23.30;67.10;;;;;;5022492;28;20473;-78
2022/08/01 01:34:35;;;;;;;7.23;4.07;;;23.30;67.10;;;;;;5011895;28;20563;-78
2022/08/01 01:37:05;;;;;;;6.53;3.37;;;23.30;67.30;;;;;;5025970;28;20474;-79
2022/08/01 01:39:35;;;;;;;6.50;3.83;;;23.30;67.30;;;;;;5020300;28;20478;-78
2022/08/01 01:42:07;;;;;;;7.70;3.57;;;23.30;67.40;;;;;;5029842;28;21018;-78
2022/08/01 01:44:38;;;;;;;6.07;3.30;;;23.30;67.50;;;;;;5014458;28;20488;-77
2022/08/01 01:47:06;;;;;;;5.57;3.53;;;23.20;67.50;;;;;;5022899;28;21062;-77
2022/08/01 01:49:35;;;;;;;6.20;3.10;;;23.20;67.60;;;;;;5025315;28;20491;-78
2022/08/01 01:52:05;;;;;;;7.30;3.43;;;23.30;67.60;;;;;;5028801;28;20503;-78
2022/08/01 01:54:37;;;;;;;7.63;3.20;;;23.20;67.60;;;;;;5031271;28;20456;-78
2022/08/01 01:57:09;;;;;;;4.87;2.73;;;23.30;67.70;;;;;;5026349;28;20881;-78
2022/08/01 01:59:40;;;;;;;5.60;2.80;;;23.30;67.70;;;;;;5013125;28;21019;-78
2022/08/01 02:02:09;;;;;;;5.40;2.83;;;23.30;67.80;;;;;;5014409;28;20465;-78
2022/08/01 02:04:43;;;;;;;9.30;3.07;;;23.30;67.90;;;;;;5015086;28;20459;-78
2022/08/01 02:07:14;;;;;;;6.50;3.27;;;23.30;67.90;;;;;;5029046;28;20473;-77
2022/08/01 02:09:44;;;;;;;5.07;2.87;;;23.30;67.90;;;;;;5025458;28;20496;-78
2022/08/01 02:12:13;;;;;;;6.30;2.93;;;23.30;67.90;;;;;;5024321;28;20456;-78
2022/08/01 02:14:45;;;;;;;6.67;2.90;;;23.30;67.90;;;;;;5030640;28;20524;-78
2022/08/01 02:17:18;;;;;;;6.57;2.70;;;23.30;67.90;;;;;;5028321;28;20480;-78
2022/08/01 02:19:46;;;;;;;13.00;3.43;;;23.30;67.90;;;;;;5026883;28;20496;-78
2022/08/01 02:22:19;;;;;;;5.87;3.17;;;23.20;67.90;;;;;;5035327;28;20455;-78
2022/08/01 02:24:53;;;;;;;7.33;3.30;;;23.20;67.90;;;;;;5038764;28;20472;-76
2022/08/01 02:27:26;;;;;;;5.30;3.10;;;23.10;68.00;;;;;;5032439;28;20530;-78
2022/08/01 02:30:00;;;;;;;5.67;3.50;;;23.10;68.10;;;;;;5021196;28;20948;-77
2022/08/01 02:32:32;;;;;;;6.03;3.27;;;23.00;68.20;;;;;;5012061;28;20473;-77
2022/08/01 02:35:03;;;;;;;10.10;3.60;;;23.00;68.30;;;;;;5020763;28;20478;-77
2022/08/01 02:37:37;;;;;;;5.13;3.13;;;23.00;68.30;;;;;;5031063;28;20465;-78
2022/08/01 02:40:12;;;;;;;5.80;3.10;;;22.90;68.30;;;;;;5019046;28;20486;-77
2022/08/01 02:42:44;;;;;;;9.60;3.80;;;22.90;68.40;;;;;;5020779;28;20518;-78
2022/08/01 02:45:14;;;;;;;6.27;3.70;;;22.90;68.50;;;;;;5027422;28;20468;-78
2022/08/01 02:47:44;;;;;;;7.20;3.30;;;22.80;68.60;;;;;;5014166;28;20470;-79
2022/08/01 02:50:16;;;;;;;7.83;3.90;;;22.80;68.60;;;;;;5028845;28;20491;-79
2022/08/01 02:52:46;;;;;;;8.03;3.20;;;22.80;68.60;;;;;;5026176;28;20447;-79
2022/08/01 02:55:15;;;;;;;6.43;3.40;;;22.80;68.70;;;;;;5025067;28;20472;-78
2022/08/01 02:57:46;;;;;;;6.33;3.57;;;22.80;68.70;;;;;;5024699;28;21012;-77
2022/08/01 03:00:20;;;;;;;6.70;3.37;;;22.70;68.60;;;;;;5022737;28;20561;-78
2022/08/01 03:02:54;;;;;;;7.23;3.40;;;22.60;68.70;;;;;;5028306;28;20467;-78
2022/08/01 03:05:24;;;;;;;7.50;3.87;;;22.60;68.70;;;;;;5010127;28;20506;-78
2022/08/01 03:07:54;;;;;;;5.97;3.63;;;22.50;68.80;;;;;;5022649;28;20478;-79
2022/08/01 03:10:23;;;;;;;6.13;3.60;;;22.50;68.90;;;;;;5012478;28;20476;-78
2022/08/01 03:12:53;;;;;;;6.33;3.77;;;22.40;69.00;;;;;;5025456;28;20498;-78
2022/08/01 03:15:23;;;;;;;6.87;3.77;;;22.40;69.00;;;;;;5028867;28;20460;-79
2022/08/01 03:17:53;;;;;;;6.17;3.27;;;22.30;69.20;;;;;;5028775;28;20511;-78
2022/08/01 03:20:24;;;;;;;5.80;3.30;;;22.30;69.30;;;;;;5028108;28;20488;-78
2022/08/01 03:22:54;;;;;;;6.30;3.90;;;22.30;69.50;;;;;;5025590;28;20466;-78
2022/08/01 03:25:23;;;;;;;6.53;3.60;;;22.30;69.60;;;;;;5020917;28;20466;-78
2022/08/01 03:27:56;;;;;;;5.50;3.17;;;22.30;69.50;;;;;;5015474;28;21106;-78
2022/08/01 03:30:27;;;;;;;7.00;3.23;;;22.30;69.70;;;;;;5026555;28;21312;-78
2022/08/01 03:32:56;;;;;;;6.60;3.27;;;22.30;69.70;;;;;;5028097;28;20445;-78
2022/08/01 03:35:30;;;;;;;5.60;3.40;;;22.30;69.70;;;;;;5025534;28;20482;-78
2022/08/01 03:38:00;;;;;;;6.60;3.43;;;22.20;69.80;;;;;;5024526;28;20481;-78
2022/08/01 03:40:49;;;;;;;5.83;3.20;;;22.20;69.80;;;;;;5024766;28;20460;-78
2022/08/01 03:43:21;;;;;;;5.60;3.37;;;22.20;69.90;;;;;;5024425;28;20518;-78
2022/08/01 03:45:53;;;;;;;6.60;3.00;;;22.20;69.90;;;;;;5025495;28;20476;-78
2022/08/01 03:48:27;;;;;;;6.03;3.70;;;22.20;70.00;;;;;;5013622;28;20542;-77
2022/08/01 03:50:56;;;;;;;6.77;4.00;;;22.10;70.00;;;;;;5027512;28;20513;-78
2022/08/01 03:53:29;;;;;;;6.40;4.10;;;22.10;70.00;;;;;;5027243;28;20464;-78
2022/08/01 03:55:59;;;;;;;7.67;4.00;;;22.10;70.00;;;;;;5016796;28;20455;-78
2022/08/01 03:58:42;;;;;;;7.30;3.37;;;22.10;70.10;;;;;;5023965;28;20482;-78
2022/08/01 04:01:12;;;;;;;6.43;3.37;;;22.00;70.10;;;;;;5020886;28;20472;-78
2022/08/01 04:03:43;;;;;;;8.73;3.40;;;22.00;70.00;;;;;;5032110;28;20463;-78
2022/08/01 04:06:13;;;;;;;6.50;3.90;;;21.90;70.10;;;;;;5022655;28;20471;-78
2022/08/01 04:08:42;;;;;;;5.50;3.50;;;21.90;70.20;;;;;;5023347;28;20491;-78
2022/08/01 04:11:10;;;;;;;6.80;3.80;;;21.90;70.30;;;;;;5021379;28;20486;-78
2022/08/01 04:13:38;;;;;;;9.60;4.33;;;21.90;70.30;;;;;;5026768;28;21250;-78
2022/08/01 04:16:12;;;;;;;6.00;3.87;;;21.80;70.30;;;;;;5023458;28;20483;-77
2022/08/01 04:18:40;;;;;;;7.03;3.40;;;21.80;70.40;;;;;;5025546;28;20488;-78
2022/08/01 04:21:08;;;;;;;7.47;3.60;;;21.80;70.50;;;;;;5028067;28;21333;-77
2022/08/01 04:23:37;;;;;;;7.23;3.20;;;21.70;70.60;;;;;;5032166;28;20466;-78
2022/08/01 04:26:06;;;;;;;5.10;3.03;;;21.80;70.70;;;;;;5010955;28;20473;-77
2022/08/01 04:28:36;;;;;;;8.70;3.57;;;21.70;70.80;;;;;;5023293;28;20995;-77
2022/08/01 04:31:10;;;;;;;6.23;3.57;;;21.80;70.80;;;;;;5025229;28;20485;-78
2022/08/01 04:33:41;;;;;;;7.50;3.87;;;21.70;70.90;;;;;;5002732;28;20875;-78
2022/08/01 04:36:12;;;;;;;5.60;3.27;;;21.70;71.00;;;;;;5012740;28;20460;-78
2022/08/01 04:38:43;;;;;;;7.40;3.93;;;21.70;71.00;;;;;;5028504;28;20493;-78
2022/08/01 04:41:13;;;;;;;6.50;3.37;;;21.70;71.10;;;;;;5021658;28;20467;-79
2022/08/01 04:43:42;;;;;;;5.10;3.27;;;21.70;71.20;;;;;;5023562;28;20852;-77
2022/08/01 04:46:11;;;;;;;6.83;3.30;;;21.70;71.20;;;;;;5022858;28;20851;-77
2022/08/01 04:48:42;;;;;;;6.60;3.93;;;21.80;71.40;;;;;;5024956;28;20489;-77
2022/08/01 04:51:14;;;;;;;7.77;3.63;;;21.80;71.50;;;;;;5021164;28;20489;-77
2022/08/01 04:53:43;;;;;;;6.60;3.73;;;21.80;71.50;;;;;;5023606;28;20447;-78
2022/08/01 04:56:12;;;;;;;6.20;3.53;;;21.90;71.60;;;;;;5021719;28;20450;-77
2022/08/01 04:58:41;;;;;;;6.23;3.33;;;21.90;71.60;;;;;;5012046;28;20483;-77
2022/08/01 05:01:10;;;;;;;6.40;3.03;;;21.90;71.70;;;;;;5034040;28;20496;-77
2022/08/01 05:03:38;;;;;;;4.87;3.10;;;22.00;71.70;;;;;;5009344;28;20458;-77
2022/08/01 05:06:07;;;;;;;11.13;4.13;;;22.00;71.70;;;;;;5027831;28;20462;-76
2022/08/01 05:08:41;;;;;;;7.30;3.53;;;22.10;71.80;;;;;;5012763;28;20462;-77
2022/08/01 05:11:11;;;;;;;6.47;3.10;;;22.10;71.90;;;;;;5024014;28;20493;-77
2022/08/01 05:13:39;;;;;;;6.90;3.43;;;22.10;71.90;;;;;;5018780;28;20483;-77
2022/08/01 05:16:07;;;;;;;6.20;2.97;;;22.10;71.90;;;;;;5030182;28;21124;-76
2022/08/01 05:18:34;;;;;;;7.40;3.67;;;22.20;72.00;;;;;;5023169;28;20494;-77
2022/08/01 05:21:03;;;;;;;5.07;2.90;;;22.20;72.00;;;;;;5020928;28;20460;-77
2022/08/01 05:23:32;;;;;;;6.10;3.43;;;22.20;72.10;;;;;;5024460;28;20949;-77
2022/08/01 05:26:10;;;;;;;5.50;3.00;;;22.30;72.10;;;;;;5014052;28;20450;-77
2022/08/01 05:28:41;;;;;;;6.30;3.20;;;22.30;72.20;;;;;;5010804;28;20482;-77
2022/08/01 05:31:09;;;;;;;5.67;3.37;;;22.30;72.20;;;;;;5022841;28;20468;-76
2022/08/01 05:33:37;;;;;;;6.30;2.60;;;22.40;72.40;;;;;;5029380;28;20465;-77
2022/08/01 05:36:06;;;;;;;5.97;2.73;;;22.40;72.50;;;;;;5024599;28;20980;-77
2022/08/01 05:38:35;;;;;;;6.07;3.53;;;22.40;72.70;;;;;;5008426;28;20461;-77
2022/08/01 05:41:03;;;;;;;8.20;3.50;;;22.50;72.80;;;;;;5030494;28;20800;-77
2022/08/01 05:43:31;;;;;;;6.47;3.90;;;22.50;72.90;;;;;;5029829;28;20464;-77
2022/08/01 05:45:59;;;;;;;5.87;3.37;;;22.60;73.00;;;;;;5024369;28;20482;-77
2022/08/01 05:48:27;;;;;;;5.90;3.37;;;22.90;75.20;;;;;;5034122;28;20484;-77
2022/08/01 05:50:55;;;;;;;7.13;3.00;;;24.40;75.40;;;;;;5025376;28;21010;-77
2022/08/01 05:53:26;;;;;;;5.00;3.10;;;26.30;73.30;;;;;;5022450;28;20550;-77
2022/08/01 05:55:55;;;;;;;5.47;2.80;;;28.20;70.20;;;;;;5009901;28;20458;-77
2022/08/01 05:58:23;;;;;;;6.63;3.20;;;29.90;67.10;;;;;;5012707;28;20452;-77
2022/08/01 06:00:51;;;;;;;8.43;2.70;;;31.20;64.00;;;;;;5022468;28;20473;-77
2022/08/01 06:03:19;;;;;;;5.40;3.30;;;31.70;60.80;;;;;;5024085;28;20467;-77
2022/08/01 06:05:47;;;;;;;4.70;2.47;;;31.10;59.50;;;;;;5023747;28;20458;-77
2022/08/01 06:08:15;;;;;;;5.80;2.67;;;30.90;60.60;;;;;;5026211;28;20499;-77
2022/08/01 06:10:43;;;;;;;5.97;3.57;;;30.90;59.10;;;;;;5023408;28;21068;-77
2022/08/01 06:13:13;;;;;;;5.50;2.50;;;30.30;59.30;;;;;;5023602;28;20470;-77
2022/08/01 06:15:41;;;;;;;5.47;3.07;;;30.80;60.60;;;;;;5020795;28;20471;-77
2022/08/01 06:18:09;;;;;;;7.37;3.60;;;31.80;59.60;;;;;;5029841;28;20836;-77
2022/08/01 06:20:37;;;;;;;8.40;2.90;;;32.50;57.20;;;;;;5024733;28;20498;-76
2022/08/01 06:23:05;;;;;;;5.97;2.80;;;32.00;55.70;;;;;;5022241;28;20470;-77
2022/08/01 06:25:54;;;;;;;6.30;2.90;;;30.90;55.70;;;;;;5013653;28;20475;-77
2022/08/01 06:28:23;;;;;;;4.40;2.20;;;29.60;56.50;;;;;;5016678;28;20952;-77
2022/08/01 06:30:51;;;;;;;6.80;3.33;;;28.60;57.50;;;;;;5024449;28;20492;-77
2022/08/01 06:33:19;;;;;;;7.07;2.93;;;27.80;58.50;;;;;;5013481;28;20460;-77
2022/08/01 06:35:47;;;;;;;5.47;2.77;;;27.10;59.50;;;;;;5023009;28;21058;-77
2022/08/01 06:38:15;;;;;;;6.40;2.90;;;26.50;60.50;;;;;;5024031;28;20480;-77
2022/08/01 06:40:43;;;;;;;6.57;2.60;;;26.00;61.20;;;;;;5023462;28;20461;-77
2022/08/01 06:43:12;;;;;;;6.63;2.57;;;25.60;62.20;;;;;;5013198;28;21065;-77
2022/08/01 06:45:41;;;;;;;4.90;2.67;;;25.30;62.80;;;;;;5032705;28;20462;-76
2022/08/01 06:48:09;;;;;;;5.10;2.70;;;25.00;63.70;;;;;;5034269;28;20853;-77
2022/08/01 06:50:37;;;;;;;7.07;2.40;;;24.80;63.90;;;;;;5028666;28;20494;-77
2022/08/01 06:53:05;;;;;;;5.70;2.90;;;24.70;64.50;;;;;;5032252;28;20466;-76
2022/08/01 06:55:33;;;;;;;4.90;2.70;;;24.60;65.20;;;;;;5014031;28;20490;-77
2022/08/01 06:58:01;;;;;;;4.87;2.70;;;24.50;65.40;;;;;;5028731;28;20464;-77
2022/08/01 07:00:29;;;;;;;5.53;2.60;;;24.40;65.70;;;;;;5029437;28;20478;-77
2022/08/01 07:02:59;;;;;;;6.10;3.47;;;24.40;65.90;;;;;;5027987;28;20512;-77
2022/08/01 07:05:30;;;;;;;6.50;3.37;;;24.30;66.20;;;;;;5025830;28;20463;-77
2022/08/01 07:07:58;;;;;;;5.50;3.13;;;24.30;66.50;;;;;;5009305;28;20824;-76
2022/08/01 07:10:26;;;;;;;5.77;3.33;;;24.40;66.60;;;;;;5032146;28;21024;-77
2022/08/01 07:12:54;;;;;;;8.23;3.97;;;24.40;66.80;;;;;;5027949;28;20482;-77
2022/08/01 07:15:26;;;;;;;5.80;3.10;;;24.40;67.00;;;;;;5027282;28;20459;-77
2022/08/01 07:17:54;;;;;;;7.03;3.33;;;24.50;67.00;;;;;;5028705;28;20446;-77
2022/08/01 07:20:23;;;;;;;5.20;3.10;;;24.50;67.20;;;;;;5026792;28;20486;-76
2022/08/01 07:22:51;;;;;;;5.67;3.43;;;24.60;67.30;;;;;;5015087;28;20525;-77
2022/08/01 07:25:19;;;;;;;5.40;2.90;;;24.60;67.30;;;;;;5025725;28;20967;-77
2022/08/01 07:27:47;;;;;;;7.13;3.10;;;24.70;67.40;;;;;;5003227;28;21032;-77
2022/08/01 07:30:15;;;;;;;4.50;2.63;;;24.70;67.40;;;;;;5029294;28;20469;-77
2022/08/01 07:32:43;;;;;;;11.83;3.67;;;24.80;67.30;;;;;;5000902;28;20494;-77
2022/08/01 07:35:11;;;;;;;6.20;2.73;;;24.80;67.40;;;;;;5025469;28;20944;-77
2022/08/01 07:37:40;;;;;;;6.30;3.23;;;24.80;67.40;;;;;;5021792;28;20469;-77
2022/08/01 07:40:17;;;;;;;5.60;3.03;;;24.90;67.50;;;;;;5027349;28;20492;-77
2022/08/01 07:42:45;;;;;;;5.40;2.90;;;25.00;67.40;;;;;;5026748;28;21159;-77
2022/08/01 07:45:14;;;;;;;5.10;3.03;;;25.00;67.40;;;;;;5025634;28;20455;-77
2022/08/01 07:47:42;;;;;;;5.77;3.10;;;25.00;67.40;;;;;;5027866;28;20459;-77
2022/08/01 07:50:12;;;;;;;5.93;2.90;;;25.00;67.30;;;;;;5023241;28;21037;-76
2022/08/01 07:52:42;;;;;;;5.20;2.83;;;25.00;67.20;;;;;;5015560;28;20982;-77
2022/08/01 07:55:10;;;;;;;5.20;3.03;;;25.00;67.10;;;;;;5026281;28;20466;-77
2022/08/01 07:57:43;;;;;;;5.47;3.10;;;25.00;67.10;;;;;;5018792;28;20861;-77
2022/08/01 08:00:12;;;;;;;8.33;2.87;;;25.00;67.10;;;;;;5026253;28;20494;-77
2022/08/01 08:02:41;;;;;;;5.73;2.80;;;25.00;67.10;;;;;;5024617;28;20450;-77
2022/08/01 08:05:09;;;;;;;5.80;3.10;;;25.00;66.80;;;;;;5026825;28;20475;-77
2022/08/01 08:07:38;;;;;;;4.67;2.60;;;24.90;66.70;;;;;;5028696;28;20505;-77
2022/08/01 08:10:09;;;;;;;4.87;2.80;;;24.90;66.70;;;;;;5027822;28;20517;-76
2022/08/01 08:12:37;;;;;;;4.70;2.33;;;24.80;66.80;;;;;;5026410;28;20479;-76
2022/08/01 08:15:06;;;;;;;5.57;3.00;;;24.80;66.80;;;;;;5017253;28;20975;-76
2022/08/01 08:17:35;;;;;;;6.03;2.70;;;24.90;66.80;;;;;;5026994;28;21187;-76
2022/08/01 08:20:05;;;;;;;5.17;3.03;;;24.90;66.70;;;;;;5012996;28;20589;-76
2022/08/01 08:22:37;;;;;;;5.27;2.37;;;25.00;66.70;;;;;;5012677;28;20466;-76
2022/08/01 08:25:08;;;;;;;5.07;2.70;;;25.00;66.60;;;;;;5033542;28;20465;-76
2022/08/01 08:27:57;;;;;;;6.53;2.57;;;25.00;66.60;;;;;;5008845;28;20674;-76
2022/08/01 08:30:25;;;;;;;4.80;2.40;;;24.90;66.50;;;;;;5013782;28;20504;-77
2022/08/01 08:32:53;;;;;;;5.43;2.10;;;24.90;66.60;;;;;;5034114;28;20471;-77
2022/08/01 08:35:21;;;;;;;6.10;2.40;;;24.90;66.60;;;;;;5023822;28;20915;-76
2022/08/01 08:38:07;;;;;;;4.93;2.73;;;25.00;66.60;;;;;;5019353;28;20511;-76
2022/08/01 08:40:39;;;;;;;6.13;2.70;;;24.90;66.60;;;;;;5021660;28;20482;-77
2022/08/01 08:43:28;;;;;;;5.00;2.50;;;25.00;66.70;;;;;;5023725;28;20455;-77
2022/08/01 08:45:57;;;;;;;4.23;2.07;;;25.00;66.70;;;;;;5016006;28;20921;-76
2022/08/01 08:48:28;;;;;;;4.37;2.20;;;25.00;66.80;;;;;;5030986;28;20517;-77
2022/08/01 08:50:58;;;;;;;7.27;2.57;;;25.00;66.70;;;;;;5026609;28;20854;-77
2022/08/01 08:53:27;;;;;;;4.60;2.80;;;25.10;66.70;;;;;;5026568;28;20523;-77
2022/08/01 08:56:03;;;;;;;5.37;2.70;;;25.10;66.80;;;;;;5026639;28;20465;-77
2022/08/01 08:58:33;;;;;;;5.20;2.93;;;25.20;66.70;;;;;;5027526;28;20460;-77
2022/08/01 09:01:02;;;;;;;5.83;3.10;;;25.20;66.60;;;;;;5024314;28;20518;-77
2022/08/01 09:03:30;;;;;;;5.90;2.87;;;25.20;66.50;;;;;;5012299;28;20464;-77
2022/08/01 09:05:58;;;;;;;5.67;2.93;;;25.20;66.50;;;;;;5016070;28;20485;-77
2022/08/01 09:08:25;;;;;;;5.90;2.60;;;25.20;66.60;;;;;;5026324;28;21006;-77
2022/08/01 09:10:53;;;;;;;5.23;2.63;;;25.20;66.70;;;;;;5024595;28;20482;-77
2022/08/01 09:13:23;;;;;;;5.10;2.33;;;25.20;66.70;;;;;;5018922;28;20470;-77
2022/08/01 09:15:53;;;;;;;4.90;2.07;;;25.30;66.70;;;;;;5025764;28;20490;-76
2022/08/01 09:18:33;;;;;;;5.10;2.20;;;25.30;66.70;;;;;;5011796;28;20463;-77
2022/08/01 09:21:14;;;;;;;4.87;2.23;;;25.40;66.40;;;;;;5025598;28;20497;-77
2022/08/01 09:23:45;;;;;;;4.60;1.80;;;25.40;66.30;;;;;;5031145;28;20461;-77
2022/08/01 09:26:29;;;;;;;4.30;2.07;;;25.50;66.20;;;;;;5024156;28;20544;-77
2022/08/01 09:29:00;;;;;;;4.53;2.27;;;25.50;65.90;;;;;;5025651;28;21039;-77
2022/08/01 09:31:29;;;;;;;4.27;2.40;;;25.50;65.70;;;;;;5024225;28;20465;-77
2022/08/01 09:34:07;;;;;;;4.33;2.00;;;25.50;65.50;;;;;;5022701;28;20497;-77
2022/08/01 09:36:48;;;;;;;4.60;2.20;;;25.40;65.40;;;;;;5026129;28;20478;-77
2022/08/01 09:39:16;;;;;;;4.93;2.50;;;25.40;65.40;;;;;;5024806;28;20578;-77
2022/08/01 09:41:44;;;;;;;6.30;2.27;;;25.30;65.50;;;;;;5022799;28;21114;-77
2022/08/01 09:44:14;;;;;;;6.57;2.17;;;25.30;65.40;;;;;;5024720;28;20975;-77
2022/08/01 09:46:51;;;;;;;5.30;2.07;;;25.30;65.50;;;;;;5031088;28;20565;-77
2022/08/01 09:49:29;;;;;;;4.60;2.60;;;25.40;65.50;;;;;;5014833;28;20573;-77
2022/08/01 09:52:20;;;;;;;4.43;2.00;;;25.40;65.50;;;;;;5024273;28;20464;-77
2022/08/01 09:54:57;;;;;;;7.40;3.23;;;25.50;65.40;;;;;;5024235;28;20498;-77
2022/08/01 09:57:25;;;;;;;5.00;2.47;;;25.50;65.40;;;;;;5024991;28;20453;-77
2022/08/01 09:59:58;;;;;;;5.57;2.37;;;25.60;65.40;;;;;;5023575;28;20890;-77
2022/08/01 10:02:33;;;;;;;4.77;2.20;;;25.60;65.40;;;;;;5030323;28;21057;-77
2022/08/01 10:05:03;;;;;;;4.43;2.20;;;25.60;64.90;;;;;;5014301;28;20545;-77
2022/08/01 10:07:36;;;;;;;4.93;1.90;;;25.70;65.00;;;;;;5027224;28;20551;-77
2022/08/01 10:10:11;;;;;;;5.30;2.40;;;25.70;64.90;;;;;;5025860;28;20477;-77
2022/08/01 10:12:43;;;;;;;4.60;2.50;;;25.80;64.80;;;;;;5012219;28;20572;-77
2022/08/01 10:15:16;;;;;;;5.73;2.50;;;25.80;64.80;;;;;;5025269;28;20456;-78
2022/08/01 10:17:52;;;;;;;5.20;2.50;;;25.90;64.80;;;;;;5017829;28;20457;-77
2022/08/01 10:20:26;;;;;;;5.30;2.50;;;26.00;64.60;;;;;;5026062;28;20498;-77
2022/08/01 10:23:01;;;;;;;5.17;1.97;;;26.00;64.60;;;;;;5036764;28;20461;-77
2022/08/01 10:25:36;;;;;;;4.17;1.90;;;26.10;64.10;;;;;;5027534;28;20461;-77
2022/08/01 10:28:15;;;;;;;5.63;2.00;;;26.10;63.80;;;;;;5012577;28;20473;-77
2022/08/01 10:30:50;;;;;;;4.33;2.10;;;26.20;63.60;;;;;;5027177;28;20534;-77
2022/08/01 10:33:22;;;;;;;4.87;2.50;;;26.20;63.60;;;;;;5026610;28;20479;-77
2022/08/01 10:36:11;;;;;;;5.20;2.30;;;26.30;63.30;;;;;;5017955;28;20477;-77
2022/08/01 10:38:40;;;;;;;4.20;1.90;;;26.40;63.20;;;;;;5028939;28;20458;-77
2022/08/01 10:41:09;;;;;;;5.10;2.07;;;26.40;63.00;;;;;;5028254;28;20470;-77
2022/08/01 10:43:37;;;;;;;4.37;1.93;;;26.40;62.90;;;;;;5018386;28;20470;-77
2022/08/01 10:46:07;;;;;;;4.00;1.90;;;26.40;62.80;;;;;;5028296;28;21006;-77
2022/08/01 10:48:43;;;;;;;4.30;1.67;;;26.50;62.40;;;;;;5028802;28;20458;-77
2022/08/01 10:51:12;;;;;;;3.87;1.20;;;26.50;61.30;;;;;;5026674;28;20479;-77
2022/08/01 10:53:51;;;;;;;3.87;1.40;;;26.40;61.80;;;;;;5007405;28;20491;-77
2022/08/01 10:56:22;;;;;;;4.00;1.43;;;26.50;61.60;;;;;;5028054;28;20548;-76
2022/08/01 10:59:02;;;;;;;3.97;1.50;;;26.50;61.40;;;;;;5031129;28;20479;-77
2022/08/01 11:01:34;;;;;;;3.50;1.30;;;26.50;61.20;;;;;;5027426;28;20469;-77
2022/08/01 11:04:10;;;;;;;4.27;1.40;;;26.50;61.30;;;;;;5018258;28;20475;-77
2022/08/01 11:06:54;;;;;;;3.90;1.40;;;26.60;60.90;;;;;;5030270;28;20954;-77
2022/08/01 11:09:29;;;;;;;4.10;1.33;;;26.50;60.50;;;;;;5029865;28;20475;-77
2022/08/01 11:12:08;;;;;;;3.90;1.50;;;26.50;60.50;;;;;;5028162;28;20468;-77
2022/08/01 11:15:28;;;;;;;3.80;1.57;;;26.60;60.50;;;;;;5028630;28;20516;-77
2022/08/01 11:18:04;;;;;;;4.17;1.40;;;26.60;60.40;;;;;;5006877;28;20478;-77
2022/08/01 11:20:34;;;;;;;4.13;1.77;;;26.60;60.40;;;;;;5001210;28;20513;-77
2022/08/01 11:23:18;;;;;;;4.80;1.57;;;26.60;60.40;;;;;;5007796;28;20447;-77
2022/08/01 11:26:08;;;;;;;4.07;1.67;;;26.70;60.40;;;;;;5015364;28;20532;-77
2022/08/01 11:28:37;;;;;;;4.20;2.03;;;26.80;60.60;;;;;;5003549;28;20477;-77
2022/08/01 11:31:29;;;;;;;4.20;2.10;;;26.90;60.60;;;;;;5004413;28;20487;-77
2022/08/01 11:34:05;;;;;;;4.60;1.80;;;26.90;60.10;;;;;;5008257;28;20491;-77
2022/08/01 11:36:33;;;;;;;4.60;2.10;;;26.90;60.30;;;;;;5001590;28;20503;-77
2022/08/01 11:39:21;;;;;;;5.33;2.07;;;26.90;60.30;;;;;;4991888;28;20484;-77
2022/08/01 11:41:50;;;;;;;4.53;2.00;;;26.90;60.40;;;;;;5008062;28;20468;-76
2022/08/01 11:44:25;;;;;;;4.17;2.03;;;26.90;60.30;;;;;;5009228;28;20466;-77
2022/08/01 11:47:02;;;;;;;4.20;2.03;;;26.90;60.30;;;;;;5002267;28;20535;-77
2022/08/01 11:49:50;;;;;;;5.60;2.03;;;26.90;60.30;;;;;;5005609;28;20493;-77
2022/08/01 11:52:20;;;;;;;4.13;1.80;;;26.90;60.20;;;;;;5006408;28;21207;-77
2022/08/01 11:54:51;;;;;;;4.57;2.10;;;26.90;60.30;;;;;;5008003;28;20476;-77
2022/08/01 11:57:20;;;;;;;4.80;2.00;;;26.80;60.30;;;;;;4991971;28;20457;-77
2022/08/01 11:59:51;;;;;;;4.40;2.03;;;26.80;60.30;;;;;;4997474;28;20487;-77
2022/08/01 12:02:40;;;;;;;4.47;2.00;;;26.70;60.30;;;;;;5025782;28;20483;-77
2022/08/01 12:05:12;;;;;;;4.23;1.90;;;26.60;60.30;;;;;;5027608;28;20856;-77
2022/08/01 12:07:42;;;;;;;3.87;1.67;;;26.60;60.20;;;;;;5026394;28;20508;-77
2022/08/01 12:10:13;;;;;;;4.53;1.70;;;26.60;60.20;;;;;;5029105;28;20478;-76
2022/08/01 12:12:45;;;;;;;4.17;1.50;;;26.70;60.20;;;;;;5024284;28;20472;-76
2022/08/01 12:15:14;;;;;;;3.80;1.67;;;26.70;60.20;;;;;;5024451;28;20477;-76
2022/08/01 12:17:43;;;;;;;5.50;1.90;;;26.80;60.20;;;;;;5021348;28;20464;-76
2022/08/01 12:20:28;;;;;;;4.70;2.43;;;26.90;60.10;;;;;;5024714;28;20569;-76
2022/08/01 12:22:59;;;;;;;4.40;2.10;;;26.90;60.00;;;;;;5024491;28;20465;-76
2022/08/01 12:25:27;;;;;;;4.80;1.97;;;26.90;60.00;;;;;;5019748;28;20454;-76
2022/08/01 12:27:56;;;;;;;4.13;2.10;;;26.90;60.00;;;;;;5029578;28;20464;-76
2022/08/01 12:30:25;;;;;;;4.63;2.40;;;26.90;60.00;;;;;;5025906;28;20493;-76
2022/08/01 12:32:54;;;;;;;4.90;2.30;;;26.90;59.90;;;;;;5024768;28;20833;-76
2022/08/01 12:35:24;;;;;;;4.47;2.07;;;26.90;59.90;;;;;;5013388;28;21006;-76
2022/08/01 12:37:55;;;;;;;4.67;2.00;;;26.80;59.70;;;;;;5025293;28;20891;-76
2022/08/01 12:40:25;;;;;;;4.60;1.97;;;26.80;59.60;;;;;;5023837;28;20502;-76
2022/08/01 12:42:56;;;;;;;5.27;2.40;;;26.80;59.50;;;;;;5024399;28;20468;-76
2022/08/01 12:45:27;;;;;;;6.70;2.20;;;26.80;59.50;;;;;;5013569;28;20463;-76
2022/08/01 12:47:57;;;;;;;4.47;2.13;;;26.80;59.50;;;;;;5025191;28;20451;-76
2022/08/01 12:50:28;;;;;;;4.57;2.40;;;26.80;59.60;;;;;;5024413;28;20499;-76
2022/08/01 12:52:59;;;;;;;4.90;2.70;;;26.90;59.90;;;;;;5027973;28;20465;-76
2022/08/01 12:55:27;;;;;;;6.07;2.70;;;27.00;59.90;;;;;;5024153;28;20520;-76
2022/08/01 12:58:06;;;;;;;4.67;2.27;;;27.20;60.00;;;;;;5022465;28;20519;-76
2022/08/01 13:00:44;;;;;;;4.50;2.23;;;27.30;59.90;;;;;;5021277;28;20484;-76
2022/08/01 13:03:14;;;;;;;5.23;2.07;;;27.40;59.90;;;;;;5020167;28;20555;-76
2022/08/01 13:05:45;;;;;;;4.90;2.27;;;27.50;59.70;;;;;;5008076;28;20457;-76
2022/08/01 13:08:15;;;;;;;4.27;1.93;;;27.60;59.30;;;;;;5016252;28;20461;-77